Time;durP1;ratioP1;P1;durP2;ratioP2;P2;SDS_P1;SDS_P2;PMS_P1;PMS_P2;Temp;Humidity;BMP_temperature;BMP_pressure;BME280_temperature;BME280_humidity;BME280_pressure;Samples;Min_cycle;Max_cycle;Signal;HPM_P1;HPM_P2
2022/11/08 00:01:34;;;;;;;21.08;14.90;;;;;;;;;;10142313;29;20577;-92
2022/11/08 00:17:17;;;;;;;21.70;14.82;;;;;;;;;;10141716;29;20432;-92
2022/11/08 00:22:21;;;;;;;21.13;14.53;;;;;;;;;;10169265;29;20423;-93
2022/11/08 00:27:25;;;;;;;21.35;14.30;;;;;;;;;;10168821;29;20916;-93
2022/11/08 00:32:27;;;;;;;22.80;14.38;;;;;;;;;;10173332;29;20453;-93
2022/11/08 00:37:30;;;;;;;20.67;13.83;;;;;;;;;;10165989;29;20471;-92
2022/11/08 00:42:32;;;;;;;18.92;13.13;;;;;;;;;;10193046;29;20423;-93
2022/11/08 00:47:35;;;;;;;18.20;12.90;;;;;;;;;;10168578;29;20470;-93
2022/11/08 00:52:38;;;;;;;17.85;12.60;;;;;;;;;;10167868;29;20423;-93
2022/11/08 00:57:40;;;;;;;18.38;12.07;;;;;;;;;;10175951;29;21136;-93
2022/11/08 01:02:42;;;;;;;17.02;12.43;;;;;;;;;;10147915;29;20472;-92
2022/11/08 01:07:45;;;;;;;17.50;12.60;;;;;;;;;;10180959;29;20577;-93
2022/11/08 01:12:47;;;;;;;17.70;11.80;;;;;;;;;;10183476;29;20568;-92
2022/11/08 01:17:49;;;;;;;18.13;12.05;;;;;;;;;;10188058;29;20435;-92
2022/11/08 01:22:53;;;;;;;18.08;12.20;;;;;;;;;;10146395;29;20427;-92
2022/11/08 01:27:55;;;;;;;16.40;11.30;;;;;;;;;;10164877;29;20443;-93
2022/11/08 01:32:56;;;;;;;17.17;11.30;;;;;;;;;;10171161;29;20924;-92
2022/11/08 01:38:00;;;;;;;17.38;11.77;;;;;;;;;;10168543;29;20463;-93
2022/11/08 01:43:35;;;;;;;18.60;11.13;;;;;;;;;;10165930;29;20516;-92
2022/11/08 01:48:39;;;;;;;15.02;10.23;;;;;;;;;;10171913;29;20496;-91
2022/11/08 01:53:43;;;;;;;15.02;9.82;;;;;;;;;;10163875;29;20507;-93
2022/11/08 01:58:48;;;;;;;17.20;10.32;;;;;;;;;;10177115;29;20435;-92
2022/11/08 02:03:51;;;;;;;15.93;9.97;;;;;;;;;;10164777;29;20481;-92
2022/11/08 02:08:56;;;;;;;15.07;9.60;;;;;;;;;;10164946;29;20844;-94
2022/11/08 02:13:58;;;;;;;15.23;9.82;;;;;;;;;;10165112;29;20458;-92
2022/11/08 02:19:00;;;;;;;15.95;10.15;;;;;;;;;;10171199;29;20439;-93
2022/11/08 02:24:09;;;;;;;17.80;10.18;;;;;;;;;;10152257;29;20508;-93
2022/11/08 02:29:27;;;;;;;17.40;9.77;;;;;;;;;;10172712;29;21053;-93
2022/11/08 02:34:32;;;;;;;17.00;9.93;;;;;;;;;;10165774;29;20491;-93
2022/11/08 02:39:35;;;;;;;14.40;9.65;;;;;;;;;;10188810;29;20457;-92
2022/11/08 02:44:37;;;;;;;15.37;9.70;;;;;;;;;;10174315;29;20881;-93
2022/11/08 02:49:41;;;;;;;15.75;9.63;;;;;;;;;;10142813;29;22084;-93
2022/11/08 02:54:45;;;;;;;15.80;9.77;;;;;;;;;;10167396;29;20514;-92
2022/11/08 02:59:48;;;;;;;14.50;9.77;;;;;;;;;;10164941;29;20439;-92
2022/11/08 03:04:49;;;;;;;15.32;10.00;;;;;;;;;;10163814;29;20786;-94
2022/11/08 03:09:53;;;;;;;14.55;9.95;;;;;;;;;;10185634;29;20518;-92
2022/11/08 03:14:55;;;;;;;15.63;9.40;;;;;;;;;;10168568;29;21037;-92
2022/11/08 03:19:57;;;;;;;14.35;9.20;;;;;;;;;;10161821;29;20627;-94
2022/11/08 03:25:00;;;;;;;12.50;8.27;;;;;;;;;;10164962;29;20417;-90
2022/11/08 03:30:03;;;;;;;12.63;8.80;;;;;;;;;;10163865;29;20556;-92
2022/11/08 03:35:05;;;;;;;15.05;9.00;;;;;;;;;;10163339;29;20843;-94
2022/11/08 03:40:11;;;;;;;12.37;8.33;;;;;;;;;;10171108;29;20467;-92
2022/11/08 03:45:13;;;;;;;11.70;7.72;;;;;;;;;;10158523;29;20459;-93
2022/11/08 03:50:16;;;;;;;12.00;7.70;;;;;;;;;;10188358;29;20474;-92
2022/11/08 03:55:22;;;;;;;11.82;7.57;;;;;;;;;;10167383;29;20464;-93
2022/11/08 04:00:26;;;;;;;10.20;6.75;;;;;;;;;;10183339;29;20864;-92
2022/11/08 04:05:28;;;;;;;9.75;6.50;;;;;;;;;;10171837;29;20514;-93
2022/11/08 04:10:31;;;;;;;11.93;7.23;;;;;;;;;;10172407;29;20428;-92
2022/11/08 04:15:33;;;;;;;10.65;6.93;;;;;;;;;;10172337;29;20522;-93
2022/11/08 04:26:01;;;;;;;10.15;6.97;;;;;;;;;;10225287;29;20503;-93
2022/11/08 04:31:05;;;;;;;9.73;6.95;;;;;;;;;;10183044;29;20442;-92
2022/11/08 04:36:09;;;;;;;11.73;7.53;;;;;;;;;;10168158;29;20467;-92
2022/11/08 04:41:15;;;;;;;9.68;7.10;;;;;;;;;;10160806;29;20526;-91
2022/11/08 04:46:18;;;;;;;10.50;6.97;;;;;;;;;;10163261;29;20537;-91
2022/11/08 04:51:23;;;;;;;11.03;7.03;;;;;;;;;;10167715;29;20924;-92
2022/11/08 04:56:27;;;;;;;11.77;7.38;;;;;;;;;;10191546;29;21142;-91
2022/11/08 05:01:31;;;;;;;11.77;7.35;;;;;;;;;;10172466;29;21024;-92
2022/11/08 05:06:33;;;;;;;10.18;6.60;;;;;;;;;;10157904;29;20546;-93
2022/11/08 05:11:37;;;;;;;12.73;7.17;;;;;;;;;;10170245;29;20451;-92
2022/11/08 05:16:39;;;;;;;12.98;7.95;;;;;;;;;;10174103;29;20482;-93
2022/11/08 05:27:01;;;;;;;12.13;7.77;;;;;;;;;;10162630;29;20403;-91
2022/11/08 05:32:03;;;;;;;12.48;7.75;;;;;;;;;;10165774;29;20929;-91
2022/11/08 05:37:05;;;;;;;13.02;7.72;;;;;;;;;;10175713;29;20923;-92
2022/11/08 05:42:08;;;;;;;12.53;7.80;;;;;;;;;;10170096;29;20870;-92
2022/11/08 05:47:11;;;;;;;14.38;8.50;;;;;;;;;;10169743;29;20515;-93
2022/11/08 05:52:13;;;;;;;11.80;7.63;;;;;;;;;;10165511;29;20532;-93
2022/11/08 05:57:16;;;;;;;11.57;7.67;;;;;;;;;;10170261;29;20457;-93
2022/11/08 06:02:18;;;;;;;10.80;7.80;;;;;;;;;;10167584;29;20947;-93
2022/11/08 06:07:26;;;;;;;10.03;7.20;;;;;;;;;;10182755;29;20486;-95
2022/11/08 06:17:47;;;;;;;13.77;7.70;;;;;;;;;;10172753;29;20533;-91
2022/11/08 06:22:49;;;;;;;10.90;7.65;;;;;;;;;;10180841;29;20430;-92
2022/11/08 06:27:52;;;;;;;11.20;8.13;;;;;;;;;;10177342;29;21027;-91
2022/11/08 06:32:54;;;;;;;12.05;7.70;;;;;;;;;;10170334;29;20447;-93
2022/11/08 06:37:56;;;;;;;13.60;8.70;;;;;;;;;;10154899;29;20479;-92
2022/11/08 06:43:00;;;;;;;13.40;8.90;;;;;;;;;;10155695;29;20498;-92
2022/11/08 06:48:04;;;;;;;12.77;8.65;;;;;;;;;;10169205;29;20487;-91
2022/11/08 06:53:08;;;;;;;13.70;8.90;;;;;;;;;;10156669;29;20420;-92
2022/11/08 06:58:11;;;;;;;14.35;10.52;;;;;;;;;;10157281;29;20726;-92
2022/11/08 07:03:14;;;;;;;11.75;8.85;;;;;;;;;;10162062;29;20444;-92
2022/11/08 07:08:16;;;;;;;14.50;10.40;;;;;;;;;;10161336;29;20423;-92
2022/11/08 07:13:20;;;;;;;17.35;9.38;;;;;;;;;;10168074;29;20482;-92
2022/11/08 07:18:22;;;;;;;19.58;11.05;;;;;;;;;;10168196;29;20472;-91
2022/11/08 07:28:41;;;;;;;19.05;8.90;;;;;;;;;;10165092;29;20514;-93
2022/11/08 07:33:43;;;;;;;14.13;9.18;;;;;;;;;;10175254;29;20428;-91
2022/11/08 07:38:45;;;;;;;16.40;9.70;;;;;;;;;;10187212;29;20424;-92
2022/11/08 07:43:52;;;;;;;13.93;8.60;;;;;;;;;;10170395;29;20458;-90
2022/11/08 07:48:57;;;;;;;14.00;9.45;;;;;;;;;;10168633;29;20507;-93
2022/11/08 07:53:59;;;;;;;15.90;9.83;;;;;;;;;;10171250;29;20477;-92
2022/11/08 07:59:12;;;;;;;14.77;9.20;;;;;;;;;;10181553;29;20550;-92
2022/11/08 08:04:14;;;;;;;12.98;8.82;;;;;;;;;;10168759;29;20411;-92
2022/11/08 08:09:16;;;;;;;13.57;9.35;;;;;;;;;;10167781;29;20458;-92
2022/11/08 08:14:20;;;;;;;13.10;8.53;;;;;;;;;;10168779;29;20435;-92
2022/11/08 08:19:22;;;;;;;12.50;8.85;;;;;;;;;;10168052;29;20440;-92
2022/11/08 08:29:51;;;;;;;13.00;8.73;;;;;;;;;;10166610;29;20412;-93
2022/11/08 08:34:54;;;;;;;12.48;8.13;;;;;;;;;;10166243;29;20424;-93
2022/11/08 08:40:13;;;;;;;13.65;8.23;;;;;;;;;;10164442;29;20454;-92
2022/11/08 08:45:19;;;;;;;12.00;7.70;;;;;;;;;;10164756;29;20423;-93
2022/11/08 08:50:37;;;;;;;10.77;7.20;;;;;;;;;;10165087;29;20455;-93
2022/11/08 08:55:41;;;;;;;10.40;7.13;;;;;;;;;;10165897;29;20511;-93
2022/11/08 09:00:47;;;;;;;10.50;7.03;;;;;;;;;;10163613;29;20923;-92
2022/11/08 09:06:09;;;;;;;;;;;;;;;;;;;;;
2022/11/08 09:11:13;;;;;;;10.43;7.55;;;;;;;;;;10163004;29;20448;-94
2022/11/08 09:16:16;;;;;;;7.60;6.43;;;;;;;;;;10164025;29;20420;-93
2022/11/08 09:21:27;;;;;;;10.13;6.73;;;;;;;;;;10162340;29;21007;-94
2022/11/08 09:26:33;;;;;;;9.00;6.53;;;;;;;;;;10162592;29;20451;-92
2022/11/08 09:31:49;;;;;;;;;;;;;;;;;;;;;
2022/11/08 09:36:51;;;;;;;9.45;6.80;;;;;;;;;;10161499;29;20464;-93
2022/11/08 09:42:29;;;;;;;8.33;6.10;;;;;;;;;;10159584;29;20487;-93
2022/11/08 09:47:41;;;;;;;10.60;6.60;;;;;;;;;;10184678;29;20416;-93
2022/11/08 09:59:01;;;;;;;10.18;6.93;;;;;;;;;;10160964;29;20438;-93
2022/11/08 10:04:11;;;;;;;8.60;6.57;;;;;;;;;;10163687;29;20843;-94
2022/11/08 10:09:34;;;;;;;7.97;6.20;;;;;;;;;;10161601;29;20923;-93
2022/11/08 10:15:02;;;;;;;10.50;6.30;;;;;;;;;;10162315;29;20842;-94
2022/11/08 10:20:18;;;;;;;8.20;5.97;;;;;;;;;;10160296;29;20463;-91
2022/11/08 10:31:00;;;;;;;7.90;5.93;;;;;;;;;;10160497;29;20408;-92
2022/11/08 10:36:08;;;;;;;6.28;5.45;;;;;;;;;;10164276;29;20447;-92
2022/11/08 10:41:18;;;;;;;7.93;5.80;;;;;;;;;;10163574;29;20423;-93
2022/11/08 10:46:40;;;;;;;8.13;5.73;;;;;;;;;;10162737;29;21090;-93
2022/11/08 10:51:46;;;;;;;7.45;5.47;;;;;;;;;;10160755;29;20426;-94
2022/11/08 10:57:04;;;;;;;7.72;5.50;;;;;;;;;;10160580;29;20519;-92
2022/11/08 11:02:39;;;;;;;;;;;;;;;;;;;;;
2022/11/08 11:08:12;;;;;;;10.80;6.50;;;;;;;;;;10150421;29;20415;-93
2022/11/08 11:13:19;;;;;;;7.47;5.65;;;;;;;;;;10156192;29;20430;-93
2022/11/08 11:18:36;;;;;;;7.97;5.87;;;;;;;;;;10160350;29;20439;-93
2022/11/08 11:29:27;;;;;;;6.53;5.55;;;;;;;;;;10157611;29;20491;-93
2022/11/08 11:40:15;;;;;;;7.03;4.93;;;;;;;;;;10141925;29;20434;-94
2022/11/08 11:51:09;;;;;;;8.30;5.47;;;;;;;;;;10151272;29;20407;-93
2022/11/08 11:56:54;;;;;;;7.23;5.30;;;;;;;;;;10161613;29;20419;-93
2022/11/08 12:08:08;;;;;;;5.82;4.50;;;;;;;;;;10156992;29;20780;-93
2022/11/08 12:14:10;;;;;;;7.10;5.10;;;;;;;;;;10130812;29;20805;-94
2022/11/08 12:30:52;;;;;;;6.82;4.93;;;;;;;;;;9749222;30;20439;-95
2022/11/08 12:37:05;;;;;;;;;;;;;;;;;;;;;
2022/11/08 12:42:46;;;;;;;8.60;5.38;;;;;;;;;;10042589;29;20425;-93
2022/11/08 12:48:12;;;;;;;8.98;6.18;;;;;;;;;;10128055;29;20436;-94
2022/11/08 12:53:48;;;;;;;10.82;5.70;;;;;;;;;;10121864;29;20859;-94
2022/11/08 12:59:14;;;;;;;7.82;5.28;;;;;;;;;;10113543;29;20520;-92
2022/11/08 13:10:18;;;;;;;7.10;5.22;;;;;;;;;;9972038;29;20428;-93
2022/11/08 13:33:06;;;;;;;6.67;5.77;;;;;;;;;;10132121;29;20483;-94
2022/11/08 13:56:25;;;;;;;7.32;5.22;;;;;;;;;;10058029;29;20524;-93
2022/11/08 14:08:15;;;;;;;9.55;5.63;;;;;;;;;;10094337;29;20907;-92
2022/11/08 14:13:55;;;;;;;;;;;;;;;;;;;;;
2022/11/08 14:19:58;;;;;;;7.60;6.15;;;;;;;;;;10133575;29;20473;-94
2022/11/08 14:36:03;;;;;;;6.05;4.30;;;;;;;;;;10137897;29;20459;-93
2022/11/08 14:41:07;;;;;;;7.53;4.60;;;;;;;;;;10138256;29;20450;-91
2022/11/08 14:51:37;;;;;;;6.45;4.28;;;;;;;;;;10121524;29;20417;-91
2022/11/08 14:56:54;;;;;;;;;;;;;;;;;;;;;
2022/11/08 15:02:02;;;;;;;8.68;4.85;;;;;;;;;;10124788;29;20937;-92
2022/11/08 15:07:20;;;;;;;7.37;4.87;;;;;;;;;;10141544;29;20422;-92
2022/11/08 15:12:27;;;;;;;12.03;6.17;;;;;;;;;;10125720;29;20469;-93
2022/11/08 15:17:38;;;;;;;12.23;6.73;;;;;;;;;;10128247;29;20818;-92
2022/11/08 15:22:42;;;;;;;9.48;6.28;;;;;;;;;;10161082;29;20803;-91
2022/11/08 15:27:54;;;;;;;12.60;6.33;;;;;;;;;;10162795;29;20920;-92
2022/11/08 15:32:57;;;;;;;9.18;6.20;;;;;;;;;;10159989;29;20463;-90
2022/11/08 15:38:03;;;;;;;11.77;6.73;;;;;;;;;;10163273;29;20446;-90
2022/11/08 15:43:34;;;;;;;16.38;9.10;;;;;;;;;;10173752;29;20425;-90
2022/11/08 15:48:37;;;;;;;11.15;7.28;;;;;;;;;;10171286;29;20461;-90
2022/11/08 15:53:40;;;;;;;16.93;10.10;;;;;;;;;;10190748;29;20422;-92
2022/11/08 15:58:44;;;;;;;12.33;7.80;;;;;;;;;;10184423;29;20462;-90
2022/11/08 16:03:47;;;;;;;17.03;9.97;;;;;;;;;;10188045;29;20412;-89
2022/11/08 16:08:49;;;;;;;15.15;7.47;;;;;;;;;;10185798;29;20423;-90
2022/11/08 16:13:52;;;;;;;13.00;7.37;;;;;;;;;;10182925;29;20497;-90
2022/11/08 16:18:54;;;;;;;11.10;6.90;;;;;;;;;;10178817;29;20709;-90
2022/11/08 16:23:56;;;;;;;10.00;6.70;;;;;;;;;;10148023;29;20528;-92
2022/11/08 16:28:59;;;;;;;16.37;8.17;;;;;;;;;;10134568;29;20485;-90
2022/11/08 16:40:04;;;;;;;18.67;9.52;;;;;;;;;;9965451;29;20523;-93
2022/11/08 16:57:19;;;;;;;14.45;9.38;;;;;;;;;;9944767;29;20475;-94
2022/11/08 17:02:56;;;;;;;;;;;;;;;;;;;;;
2022/11/08 17:08:15;;;;;;;15.30;9.70;;;;;;;;;;10092946;29;20504;-94
2022/11/08 17:13:20;;;;;;;19.85;11.23;;;;;;;;;;10119542;29;20843;-94
2022/11/08 17:18:22;;;;;;;17.35;10.93;;;;;;;;;;10119168;29;20491;-93
2022/11/08 17:23:31;;;;;;;18.63;12.03;;;;;;;;;;10079019;29;20786;-94
2022/11/08 17:28:33;;;;;;;20.57;13.00;;;;;;;;;;10101363;29;20613;-93
2022/11/08 17:33:35;;;;;;;24.40;14.80;;;;;;;;;;10123064;29;20536;-93
2022/11/08 17:49:23;;;;;;;25.63;17.03;;;;;;;;;;10130017;29;20460;-94
2022/11/08 17:54:39;;;;;;;;;;;;;;;;;;;;;
2022/11/08 18:56:33;;;;;;;38.83;21.35;;;;;;;;;;10926932;23;20460;-93
2022/11/08 19:01:35;;;;;;;33.73;21.20;;;;;;;;;;10149321;29;20556;-94
2022/11/08 19:07:00;;;;;;;35.80;23.02;;;;;;;;;;10144621;29;20424;-94
2022/11/08 19:24:39;;;;;;;;;;;;;;;;;;;;;
2022/11/08 19:35:33;;;;;;;38.33;25.08;;;;;;;;;;9928859;29;20437;-93
2022/11/08 19:40:41;;;;;;;35.65;24.33;;;;;;;;;;9941964;29;21033;-95
2022/11/08 19:45:45;;;;;;;36.72;23.55;;;;;;;;;;10087415;29;20756;-96
2022/11/08 19:50:49;;;;;;;36.42;23.40;;;;;;;;;;10123732;29;20460;-95
2022/11/08 19:56:02;;;;;;;36.03;23.20;;;;;;;;;;10123264;29;20422;-96
2022/11/08 20:01:07;;;;;;;37.03;23.60;;;;;;;;;;10136037;29;20491;-96
2022/11/08 20:06:13;;;;;;;37.13;22.98;;;;;;;;;;10130764;29;20431;-96
2022/11/08 20:11:17;;;;;;;34.47;23.07;;;;;;;;;;10120646;29;20479;-96
2022/11/08 20:16:22;;;;;;;35.77;22.10;;;;;;;;;;10123340;29;20444;-96
2022/11/08 20:21:30;;;;;;;31.52;21.60;;;;;;;;;;10139363;29;20918;-96
2022/11/08 20:26:37;;;;;;;31.20;21.27;;;;;;;;;;10145776;29;20440;-96
2022/11/08 20:31:54;;;;;;;30.30;21.13;;;;;;;;;;10156622;29;20423;-96
2022/11/08 20:37:13;;;;;;;35.90;21.98;;;;;;;;;;10150345;29;20431;-96
2022/11/08 20:42:17;;;;;;;35.08;21.70;;;;;;;;;;10155847;29;20439;-96
2022/11/08 20:47:19;;;;;;;34.85;20.85;;;;;;;;;;10138569;29;20464;-96
2022/11/08 20:59:27;;;;;;;30.07;19.43;;;;;;;;;;9949266;29;20436;-93
2022/11/08 21:10:54;;;;;;;32.20;20.52;;;;;;;;;;9931657;29;20449;-95
2022/11/08 21:16:58;;;;;;;;;;;;;;;;;;;;;
2022/11/08 21:34:18;;;;;;;33.58;21.52;;;;;;;;;;9932934;29;21128;-93
2022/11/08 22:09:58;;;;;;;;;;;;;;;;;;;;;
2022/11/08 23:08:25;;;;;;;;;;;;;;;;;;;;;
